Time;durP1;ratioP1;P1;durP2;ratioP2;P2;SDS_P1;SDS_P2;PMS_P1;PMS_P2;Temp;Humidity;BMP_temperature;BMP_pressure;BME280_temperature;BME280_humidity;BME280_pressure;Samples;Min_cycle;Max_cycle;Signal;HPM_P1;HPM_P2
2024/04/01 00:01:31;;;;;;;9.57;3.13;;;13.30;97.30;;;13.78;60.18;95453.00;2332410;57;26194;-78
2024/04/01 00:03:58;;;;;;;7.70;2.97;;;13.10;98.20;;;13.77;60.86;95443.00;2332643;57;26754;-76
2024/04/01 00:06:24;;;;;;;18.80;3.00;;;13.10;98.50;;;13.71;61.59;95455.00;2332593;57;26928;-76
2024/04/01 00:08:51;;;;;;;15.50;3.30;;;13.00;98.80;;;13.61;62.16;95457.00;2332491;57;27022;-77
2024/04/01 00:11:18;;;;;;;23.60;4.00;;;13.00;98.40;;;13.68;61.22;95441.00;2332500;57;26062;-77
2024/04/01 00:13:44;;;;;;;21.80;4.03;;;13.10;98.20;;;13.79;60.53;95441.00;2332245;57;26600;-77
2024/04/01 00:16:11;;;;;;;12.07;2.43;;;13.10;98.30;;;13.68;60.94;95430.00;2332541;57;26122;-78
2024/04/01 00:18:37;;;;;;;19.30;4.10;;;13.10;98.40;;;13.81;60.60;95428.00;2332279;57;26190;-77
2024/04/01 00:21:04;;;;;;;19.13;3.43;;;13.00;98.80;;;13.69;61.51;95425.00;2333029;57;26690;-77
2024/04/01 00:23:31;;;;;;;13.90;2.53;;;13.10;98.60;;;13.74;61.04;95407.00;2332489;57;26083;-77
2024/04/01 00:25:57;;;;;;;8.43;2.47;;;13.10;99.00;;;13.82;61.54;95416.00;2333026;57;26135;-77
2024/04/01 00:28:24;;;;;;;14.43;3.00;;;13.00;99.40;;;13.60;62.35;95401.00;2332769;57;26170;-76
2024/04/01 00:30:52;;;;;;;15.63;2.70;;;12.80;99.30;;;13.52;61.98;95405.00;2332817;57;26133;-77
2024/04/01 00:33:19;;;;;;;10.27;2.07;;;12.80;99.00;;;13.51;61.67;95410.00;2332944;57;26107;-78
2024/04/01 00:35:46;;;;;;;10.43;2.70;;;12.90;99.30;;;13.51;61.94;95406.00;2332984;57;26130;-78
2024/04/01 00:38:13;;;;;;;40.20;4.00;;;12.90;99.20;;;13.53;61.65;95398.00;2333060;57;26146;-76
2024/04/01 00:40:39;;;;;;;20.67;3.97;;;12.80;99.30;;;13.54;61.77;95399.00;2332478;57;26083;-76
2024/04/01 00:43:08;;;;;;;17.77;3.70;;;12.90;99.30;;;13.69;61.31;95399.00;2333068;57;26091;-77
2024/04/01 00:45:40;;;;;;;12.63;2.13;;;13.00;98.90;;;13.65;61.07;95401.00;2332683;57;26696;-77
2024/04/01 00:48:09;;;;;;;10.77;2.50;;;13.10;98.80;;;13.54;61.38;95392.00;2333056;57;26214;-77
2024/04/01 00:50:37;;;;;;;13.10;2.23;;;12.90;99.20;;;13.31;62.59;95404.00;2332748;57;26138;-78
2024/04/01 00:53:07;;;;;;;14.40;2.17;;;12.90;99.30;;;13.23;62.65;95397.00;2332880;57;26198;-76
2024/04/01 00:55:35;;;;;;;9.53;1.77;;;13.10;99.00;;;13.73;61.19;95379.00;2332505;57;26218;-77
2024/04/01 00:58:03;;;;;;;24.67;2.73;;;13.00;99.10;;;13.43;62.21;95396.00;2332843;57;26079;-78
2024/04/01 01:00:31;;;;;;;12.30;3.03;;;12.90;99.60;;;13.46;62.52;95389.00;2332822;57;26171;-78
2024/04/01 01:03:00;;;;;;;16.03;3.27;;;13.00;99.40;;;13.46;62.28;95392.00;2332903;57;26127;-78
2024/04/01 01:05:28;;;;;;;10.70;2.40;;;12.80;99.60;;;13.35;62.59;95389.00;2332767;57;26126;-77
2024/04/01 01:07:55;;;;;;;7.70;2.57;;;12.80;99.80;;;13.32;62.80;95381.00;2332835;57;26173;-79
2024/04/01 01:10:25;;;;;;;16.00;2.90;;;12.80;99.90;;;13.33;63.08;95399.00;2332967;57;26221;-76
2024/04/01 01:12:52;;;;;;;21.47;3.77;;;12.70;99.90;;;13.25;63.23;95394.00;2332657;57;26410;-77
2024/04/01 01:15:18;;;;;;;16.33;2.87;;;12.70;99.90;;;13.20;63.23;95395.00;2332806;57;26564;-76
2024/04/01 01:17:45;;;;;;;12.03;2.40;;;12.80;99.80;;;13.57;61.96;95373.00;2332794;57;26123;-79
2024/04/01 01:20:12;;;;;;;12.63;2.40;;;12.70;99.90;;;13.25;63.04;95377.00;2333093;57;26612;-78
2024/04/01 01:22:42;;;;;;;14.30;4.97;;;12.50;99.90;;;13.00;63.96;95358.00;2332913;57;26202;-77
2024/04/01 01:25:09;;;;;;;26.97;5.90;;;12.40;99.90;;;12.98;64.40;95347.00;2333181;57;26106;-78
2024/04/01 01:27:39;;;;;;;15.30;3.97;;;12.50;99.90;;;12.96;64.50;95349.00;2332931;57;26747;-78
2024/04/01 01:30:16;;;;;;;34.97;3.53;;;12.50;99.90;;;12.96;64.97;95354.00;2332919;57;26075;-77
2024/04/01 01:32:52;;;;;;;10.90;3.20;;;12.50;99.90;;;12.92;64.67;95345.00;2332679;57;26148;-76
2024/04/01 01:35:22;;;;;;;18.07;2.37;;;12.40;99.90;;;12.86;65.04;95327.00;2332842;57;26660;-77
2024/04/01 01:37:51;;;;;;;12.67;2.50;;;12.40;99.90;;;13.02;64.83;95337.00;2332719;57;26142;-78
2024/04/01 01:40:18;;;;;;;10.20;2.33;;;12.20;99.90;;;12.80;65.25;95324.00;2332862;57;26135;-77
2024/04/01 01:42:45;;;;;;;11.00;2.50;;;12.40;99.90;;;12.92;64.85;95305.00;2332652;57;26616;-77
2024/04/01 01:45:12;;;;;;;18.23;2.47;;;12.40;99.90;;;12.68;65.91;95305.00;2332779;57;26087;-76
2024/04/01 01:47:39;;;;;;;13.83;2.53;;;12.20;99.90;;;12.52;66.80;95291.00;2332544;57;26138;-78
2024/04/01 01:50:08;;;;;;;16.13;2.70;;;12.20;99.90;;;12.65;66.43;95274.00;2332788;57;26396;-76
2024/04/01 01:52:35;;;;;;;21.03;3.13;;;12.30;99.90;;;12.88;65.53;95263.00;2332531;57;26801;-75
2024/04/01 01:55:03;;;;;;;20.33;3.63;;;12.30;99.90;;;12.91;65.90;95261.00;2332731;57;26158;-76
2024/04/01 01:57:30;;;;;;;23.67;3.00;;;12.50;99.90;;;13.00;65.35;95266.00;2332607;57;26131;-76
2024/04/01 01:59:57;;;;;;;17.60;2.40;;;12.40;99.90;;;12.96;65.47;95252.00;2332903;57;26070;-77
2024/04/01 02:02:25;;;;;;;19.07;2.87;;;12.40;99.90;;;12.83;65.44;95256.00;2332437;57;26648;-76
2024/04/01 02:04:52;;;;;;;24.13;3.77;;;12.20;99.90;;;12.76;65.75;95256.00;2332492;57;26631;-77
2024/04/01 02:07:18;;;;;;;19.13;3.17;;;12.10;99.90;;;12.68;66.14;95268.00;2332801;57;26182;-76
2024/04/01 02:09:45;;;;;;;11.57;1.80;;;12.10;99.90;;;12.41;67.45;95257.00;2331578;57;26671;-76
2024/04/01 02:12:12;;;;;;;12.80;3.67;;;12.10;99.90;;;12.46;67.15;95259.00;2332123;57;26141;-78
2024/04/01 02:14:39;;;;;;;19.20;2.73;;;12.10;99.90;;;12.22;67.76;95248.00;2332149;57;26524;-77
2024/04/01 02:17:07;;;;;;;18.43;1.83;;;12.10;99.90;;;12.30;67.90;95281.00;2332713;57;26189;-76
2024/04/01 02:19:35;;;;;;;22.80;1.77;;;12.10;99.90;;;12.34;67.79;95280.00;2332774;57;26579;-77
2024/04/01 02:22:02;;;;;;;8.50;1.67;;;12.10;99.90;;;12.30;67.88;95256.00;2332601;57;26122;-78
2024/04/01 02:24:29;;;;;;;23.97;1.83;;;12.20;99.90;;;12.70;66.67;95254.00;2332487;57;26102;-76
2024/04/01 02:26:56;;;;;;;19.33;2.83;;;12.20;99.90;;;12.40;67.43;95278.00;2332543;57;26684;-78
2024/04/01 02:29:23;;;;;;;20.70;2.90;;;12.00;99.90;;;12.36;68.05;95274.00;2332416;57;26514;-77
2024/04/01 02:31:50;;;;;;;11.77;3.23;;;12.00;99.90;;;12.44;67.71;95254.00;2332144;57;26537;-78
2024/04/01 02:34:16;;;;;;;24.83;3.00;;;12.00;99.90;;;12.46;67.56;95260.00;2332171;57;26663;-76
2024/04/01 02:36:43;;;;;;;10.70;2.47;;;12.00;99.90;;;12.55;67.27;95242.00;2332325;57;26592;-75
2024/04/01 02:39:19;;;;;;;18.33;2.67;;;12.00;99.90;;;12.51;67.52;95224.00;2332247;57;26452;-77
2024/04/01 02:41:46;;;;;;;12.40;2.57;;;12.00;99.90;;;12.48;67.79;95210.00;2332050;57;26090;-78
2024/04/01 02:44:13;;;;;;;12.03;2.67;;;12.00;99.90;;;12.42;68.12;95200.00;2331965;57;26186;-78
2024/04/01 02:46:41;;;;;;;22.70;4.10;;;11.70;99.90;;;12.21;68.61;95177.00;2331857;57;26209;-76
2024/04/01 02:49:09;;;;;;;14.80;2.43;;;11.80;99.90;;;12.19;68.54;95183.00;2332096;57;26119;-77
2024/04/01 02:51:39;;;;;;;8.93;1.83;;;11.70;99.90;;;12.28;68.61;95189.00;2331898;57;26213;-77
2024/04/01 02:54:06;;;;;;;19.50;3.07;;;11.70;99.90;;;12.28;68.95;95165.00;2331371;57;26167;-77
2024/04/01 02:56:33;;;;;;;7.80;1.83;;;11.80;99.90;;;12.29;68.90;95167.00;2331649;57;26163;-77
2024/04/01 02:59:09;;;;;;;15.37;2.37;;;11.80;99.90;;;12.34;69.06;95172.00;2332307;57;26551;-78
2024/04/01 03:01:41;;;;;;;21.30;3.13;;;11.80;99.90;;;12.34;68.94;95155.00;2331953;57;26130;-78
2024/04/01 03:04:08;;;;;;;15.50;2.00;;;12.10;99.90;;;12.68;67.39;95133.00;2331918;57;26154;-78
2024/04/01 03:06:36;;;;;;;15.30;2.67;;;12.10;99.90;;;12.52;68.10;95163.00;2332012;57;26574;-76
2024/04/01 03:09:03;;;;;;;12.80;2.27;;;12.20;99.90;;;12.67;67.28;95138.00;2332376;57;26138;-77
2024/04/01 03:11:30;;;;;;;15.00;3.03;;;12.00;99.90;;;12.56;67.84;95123.00;2331450;57;26737;-76
2024/04/01 03:13:57;;;;;;;11.40;2.37;;;11.80;99.90;;;12.21;68.95;95150.00;2331922;57;26206;-75
2024/04/01 03:16:23;;;;;;;23.40;3.33;;;11.80;99.90;;;12.11;69.77;95173.00;2332474;57;26182;-78
2024/04/01 03:18:50;;;;;;;21.20;2.50;;;11.70;99.90;;;12.11;69.87;95170.00;2331990;57;26432;-78
2024/04/01 03:21:16;;;;;;;19.87;3.70;;;11.90;99.90;;;12.33;68.69;95164.00;2332189;57;26095;-77
2024/04/01 03:23:43;;;;;;;13.87;2.43;;;11.90;99.90;;;12.42;68.52;95195.00;2332158;57;26154;-76
2024/04/01 03:26:10;;;;;;;26.40;4.33;;;11.90;99.90;;;12.47;68.32;95170.00;2332222;57;26130;-78
2024/04/01 03:28:36;;;;;;;22.10;3.27;;;12.00;99.90;;;12.42;68.24;95163.00;2332187;57;26134;-75
2024/04/01 03:31:05;;;;;;;27.30;2.93;;;11.90;99.90;;;12.29;69.05;95148.00;2331706;57;26081;-78
2024/04/01 03:33:32;;;;;;;16.97;2.27;;;12.00;99.90;;;12.46;68.67;95147.00;2331914;57;26585;-79
2024/04/01 03:35:58;;;;;;;16.63;2.77;;;12.10;99.90;;;12.72;67.86;95177.00;2332242;57;26118;-77
2024/04/01 03:38:25;;;;;;;29.93;3.27;;;12.20;99.90;;;12.75;67.26;95155.00;2332009;57;26222;-77
2024/04/01 03:40:52;;;;;;;23.40;2.70;;;12.20;99.90;;;12.68;67.56;95176.00;2331936;57;27136;-78
2024/04/01 03:43:21;;;;;;;16.57;2.67;;;12.20;99.90;;;12.67;67.84;95159.00;2331951;57;26589;-78
2024/04/01 03:46:02;;;;;;;18.93;3.03;;;12.10;99.90;;;12.49;68.26;95158.00;2331714;57;26174;-76
2024/04/01 03:48:29;;;;;;;21.30;2.87;;;12.00;99.90;;;12.53;68.30;95161.00;2332168;57;26083;-76
2024/04/01 03:50:56;;;;;;;17.70;3.63;;;12.10;99.90;;;12.66;67.47;95192.00;2331196;57;26678;-78
2024/04/01 03:53:22;;;;;;;13.37;2.63;;;12.00;99.90;;;12.51;67.88;95173.00;2331844;57;26222;-78
2024/04/01 03:55:49;;;;;;;23.50;3.00;;;11.80;99.90;;;12.35;68.79;95183.00;2331649;57;26216;-76
2024/04/01 03:58:16;;;;;;;18.97;3.00;;;11.70;99.90;;;12.30;69.02;95211.00;2331968;57;26146;-76
2024/04/01 04:00:43;;;;;;;18.50;2.67;;;11.80;99.90;;;12.54;68.12;95181.00;2331775;57;26945;-78
2024/04/01 04:03:10;;;;;;;13.37;3.33;;;11.80;99.90;;;12.41;68.30;95147.00;2331764;57;26667;-78
2024/04/01 04:05:37;;;;;;;13.37;2.73;;;11.80;99.90;;;12.51;68.84;95164.00;2331458;57;26746;-78
2024/04/01 04:08:04;;;;;;;20.20;2.67;;;12.10;99.90;;;12.61;68.32;95200.00;2332333;57;26575;-76
2024/04/01 04:10:31;;;;;;;23.27;2.67;;;12.20;99.90;;;12.56;68.17;95190.00;2331782;57;26676;-78
2024/04/01 04:12:57;;;;;;;17.07;3.07;;;12.20;99.90;;;12.61;68.26;95173.00;2331817;57;26136;-78
2024/04/01 04:15:24;;;;;;;20.07;2.30;;;12.10;99.90;;;12.61;68.36;95194.00;2331840;57;26143;-76
2024/04/01 04:17:51;;;;;;;23.77;2.60;;;12.20;99.90;;;12.86;67.49;95183.00;2331202;57;26639;-78
2024/04/01 04:20:17;;;;;;;16.33;2.97;;;12.30;99.90;;;12.82;67.63;95201.00;2331908;57;26166;-78
2024/04/01 04:22:45;;;;;;;23.43;2.83;;;12.30;99.90;;;12.98;67.29;95188.00;2332094;57;26289;-77
2024/04/01 04:25:12;;;;;;;25.30;2.97;;;12.50;99.90;;;13.20;65.58;95180.00;2332205;57;26141;-77
2024/04/01 04:27:40;;;;;;;15.60;3.37;;;14.40;99.90;;;14.86;58.67;95137.00;2332323;57;26159;-78
2024/04/01 04:30:12;;;;;;;13.63;1.83;;;14.80;99.80;;;15.20;59.04;95142.00;2332079;57;26519;-78
2024/04/01 04:32:43;;;;;;;26.63;3.17;;;14.90;98.90;;;15.54;56.87;95146.00;2331887;57;26142;-77
2024/04/01 04:35:13;;;;;;;25.00;3.10;;;14.70;99.70;;;15.27;58.32;95169.00;2332173;57;26123;-78
2024/04/01 04:37:40;;;;;;;19.10;3.63;;;14.40;99.90;;;14.93;59.61;95181.00;2332221;57;26627;-76
2024/04/01 04:40:10;;;;;;;21.60;3.07;;;14.10;99.90;;;14.45;60.69;95183.00;2331503;57;26079;-77
2024/04/01 04:42:36;;;;;;;21.63;3.43;;;13.90;99.90;;;14.32;60.96;95168.00;2331482;57;26146;-78
2024/04/01 04:45:03;;;;;;;25.27;3.47;;;13.60;99.90;;;14.08;62.21;95184.00;2331904;57;26181;-77
2024/04/01 04:47:30;;;;;;;35.93;4.07;;;13.50;99.90;;;14.13;62.14;95173.00;2331310;57;26691;-79
2024/04/01 04:49:57;;;;;;;21.83;3.00;;;13.70;99.90;;;14.47;60.47;95151.00;2331482;57;26091;-77
2024/04/01 04:52:23;;;;;;;12.88;2.67;;;13.70;99.90;;;14.38;61.61;95159.00;2331890;57;26091;-76
2024/04/01 04:54:50;;;;;;;14.97;3.13;;;13.60;99.90;;;14.23;62.40;95162.00;2331917;57;26210;-78
2024/04/01 04:57:16;;;;;;;14.33;2.23;;;13.50;99.90;;;14.26;62.36;95166.00;2331618;57;26083;-78
2024/04/01 04:59:43;;;;;;;28.77;3.70;;;13.40;99.90;;;14.15;62.62;95171.00;2331338;57;26198;-78
2024/04/01 05:02:09;;;;;;;32.77;3.13;;;13.40;99.90;;;14.07;62.71;95175.00;2331471;57;26690;-78
2024/04/01 05:04:36;;;;;;;17.30;2.75;;;14.00;99.90;;;14.77;58.36;95163.00;2331510;57;26206;-77
2024/04/01 05:07:03;;;;;;;15.83;3.70;;;14.20;99.90;;;14.87;59.85;95179.00;2332258;57;26142;-77
2024/04/01 05:09:30;;;;;;;16.13;3.53;;;14.00;99.90;;;14.70;60.93;95197.00;2332409;57;26560;-76
2024/04/01 05:11:57;;;;;;;45.37;4.03;;;13.90;99.90;;;14.62;61.04;95183.00;2332352;57;26810;-77
2024/04/01 05:14:24;;;;;;;33.33;3.47;;;13.80;99.90;;;14.58;61.59;95170.00;2332078;57;26245;-76
2024/04/01 05:16:53;;;;;;;31.33;4.07;;;14.00;99.90;;;14.96;60.29;95181.00;2331921;57;26147;-77
2024/04/01 05:19:21;;;;;;;29.93;3.43;;;14.30;99.90;;;15.01;59.82;95176.00;2331192;57;26198;-77
2024/04/01 05:21:50;;;;;;;37.20;4.40;;;14.20;99.90;;;14.81;61.78;95165.00;2331531;57;26628;-78
2024/04/01 05:24:17;;;;;;;28.60;3.47;;;14.40;99.90;;;15.07;61.54;95148.00;2331687;57;27200;-76
2024/04/01 05:26:44;;;;;;;25.65;3.47;;;14.40;99.90;;;15.01;61.19;95170.00;2331851;57;26068;-76
2024/04/01 05:29:11;;;;;;;25.70;3.50;;;14.40;99.90;;;15.11;61.33;95183.00;2331697;57;26229;-76
2024/04/01 05:31:38;;;;;;;41.83;4.65;;;14.50;99.90;;;15.27;61.78;95166.00;2331460;57;26151;-76
2024/04/01 05:34:04;;;;;;;33.83;4.03;;;14.70;99.90;;;15.63;58.90;95141.00;2331960;57;26131;-77
2024/04/01 05:36:32;;;;;;;48.17;4.33;;;15.10;99.70;;;16.00;56.88;95133.00;2331525;57;26555;-76
2024/04/01 05:38:59;;;;;;;22.70;3.65;;;15.30;99.20;;;16.17;56.56;95129.00;2331749;57;26146;-79
2024/04/01 05:41:26;;;;;;;27.85;3.58;;;15.60;98.30;;;16.33;55.11;95124.00;2331915;57;26139;-76
2024/04/01 05:43:54;;;;;;;26.65;3.87;;;15.90;98.70;;;16.87;55.28;95138.00;2331985;57;26166;-77
2024/04/01 05:46:20;;;;;;;29.92;3.20;;;15.90;97.80;;;16.71;54.28;95149.00;2332223;57;26112;-77
2024/04/01 05:48:47;;;;;;;30.90;4.03;;;15.90;96.80;;;16.48;52.96;95145.00;2331988;57;26194;-78
2024/04/01 05:51:13;;;;;;;23.65;4.32;;;16.20;96.80;;;16.85;53.28;95125.00;2331770;57;26160;-78
2024/04/01 05:53:40;;;;;;;38.90;4.10;;;16.20;97.20;;;16.64;54.24;95119.00;2331479;57;26565;-78
2024/04/01 05:56:07;;;;;;;36.70;4.10;;;16.10;96.80;;;16.73;53.50;95122.00;2332080;57;26067;-78
2024/04/01 05:58:35;;;;;;;34.13;3.12;;;16.10;98.20;;;16.88;55.22;95124.00;2331902;57;26704;-78
2024/04/01 06:01:03;;;;;;;34.00;3.85;;;15.90;98.90;;;16.77;56.53;95117.00;2331286;57;27096;-76
2024/04/01 06:03:29;;;;;;;33.63;3.67;;;16.00;98.80;;;16.88;56.03;95130.00;2331998;57;26122;-77
2024/04/01 06:05:56;;;;;;;38.70;4.28;;;15.90;98.90;;;16.89;56.25;95155.00;2331638;57;27001;-78
2024/04/01 06:08:23;;;;;;;36.80;4.47;;;15.90;99.40;;;16.85;57.20;95129.00;2331951;57;26615;-79
2024/04/01 06:10:50;;;;;;;46.88;4.22;;;16.20;98.70;;;17.23;55.40;95124.00;2332052;57;26472;-77
2024/04/01 06:13:16;;;;;;;46.10;3.83;;;16.20;98.80;;;17.22;55.74;95160.00;2332138;57;26127;-76
2024/04/01 06:15:44;;;;;;;33.10;4.12;;;16.30;98.90;;;17.24;56.02;95153.00;2331995;57;26071;-78
2024/04/01 06:18:10;;;;;;;33.80;4.12;;;16.40;98.90;;;17.48;55.56;95147.00;2332306;57;26126;-76
2024/04/01 06:20:37;;;;;;;26.05;3.72;;;16.70;97.10;;;17.83;51.79;95162.00;2331518;57;26262;-76
2024/04/01 06:23:07;;;;;;;34.50;4.32;;;17.10;96.80;;;18.06;52.08;95141.00;2331750;57;26083;-77
2024/04/01 06:25:39;;;;;;;26.75;3.97;;;17.30;97.10;;;18.19;52.64;95152.00;2332063;57;26134;-77
2024/04/01 06:28:06;;;;;;;23.87;2.70;;;17.50;95.60;;;18.53;49.89;95159.00;2331802;57;26153;-78
2024/04/01 06:30:32;;;;;;;43.00;4.65;;;17.80;96.10;;;18.80;50.87;95144.00;2331619;57;26639;-78
2024/04/01 06:32:59;;;;;;;25.05;3.25;;;18.00;95.20;;;19.02;49.09;95131.00;2332437;57;26123;-77
2024/04/01 06:35:26;;;;;;;31.77;3.67;;;18.20;95.60;;;19.36;49.54;95133.00;2332254;57;27050;-79
2024/04/01 06:37:52;;;;;;;34.05;3.47;;;18.30;96.10;;;19.46;50.47;95120.00;2331698;57;26619;-78
2024/04/01 06:40:19;;;;;;;32.72;3.08;;;18.60;94.50;;;19.74;47.81;95126.00;2331948;57;26190;-79
2024/04/01 06:42:45;;;;;;;30.62;3.60;;;18.70;95.30;;;19.96;48.83;95150.00;2332330;57;26204;-78
2024/04/01 06:45:12;;;;;;;28.70;4.37;;;19.00;94.90;;;20.32;47.96;95127.00;2332198;57;26078;-79
2024/04/01 06:47:38;;;;;;;45.20;4.47;;;19.20;94.00;;;20.54;46.57;95137.00;2332110;57;26133;-78
2024/04/01 06:50:06;;;;;;;40.28;4.47;;;19.20;93.50;;;20.43;46.01;95134.00;2332097;57;26682;-78
2024/04/01 06:52:32;;;;;;;28.83;4.10;;;19.10;93.40;;;20.31;45.93;95115.00;2331739;57;26702;-79
2024/04/01 06:54:59;;;;;;;45.60;3.85;;;19.10;92.90;;;20.27;45.20;95111.00;2332064;57;26159;-78
2024/04/01 06:57:25;;;;;;;35.00;3.90;;;19.10;92.30;;;20.21;44.48;95116.00;2332292;57;26147;-77
2024/04/01 06:59:53;;;;;;;25.10;3.50;;;19.00;92.60;;;20.12;45.14;95113.00;2332173;57;26648;-77
2024/04/01 07:02:19;;;;;;;26.62;2.95;;;19.10;92.00;;;20.24;44.12;95122.00;2332004;57;26719;-79
2024/04/01 07:04:46;;;;;;;40.65;4.53;;;19.20;92.40;;;20.30;44.89;95143.00;2331898;57;26134;-77
2024/04/01 07:07:13;;;;;;;27.60;3.10;;;19.10;92.70;;;20.29;45.32;95130.00;2332153;57;26177;-78
2024/04/01 07:09:39;;;;;;;47.45;5.07;;;19.20;91.70;;;20.31;43.85;95117.00;2332258;57;26269;-78
2024/04/01 07:12:07;;;;;;;42.25;3.50;;;19.20;92.70;;;20.36;45.37;95120.00;2332640;57;26677;-78
2024/04/01 07:14:33;;;;;;;36.72;4.70;;;19.40;91.60;;;20.64;43.59;95131.00;2332182;57;26639;-78
2024/04/01 07:17:01;;;;;;;34.22;3.85;;;19.60;91.40;;;20.77;43.35;95150.00;2331934;57;26126;-79
2024/04/01 07:19:27;;;;;;;29.85;3.05;;;19.70;91.80;;;20.86;43.99;95147.00;2332125;57;26568;-79
2024/04/01 07:21:54;;;;;;;23.75;3.42;;;19.70;92.10;;;20.94;44.55;95150.00;2332279;57;26169;-79
2024/04/01 07:24:21;;;;;;;31.00;3.20;;;19.80;91.30;;;21.11;43.05;95158.00;2332470;57;26135;-77
2024/04/01 07:26:47;;;;;;;22.35;4.05;;;19.90;90.20;;;21.18;41.51;95149.00;2332134;57;26577;-79
2024/04/01 07:29:14;;;;;;;26.12;3.53;;;20.10;90.50;;;21.38;41.93;95152.00;2332589;57;26095;-78
2024/04/01 07:31:42;;;;;;;25.83;3.42;;;20.20;90.50;;;21.40;41.85;95149.00;2332195;57;26622;-79
2024/04/01 07:34:08;;;;;;;27.58;3.65;;;20.20;89.70;;;21.54;40.78;95152.00;2332616;57;26075;-78
2024/04/01 07:36:35;;;;;;;41.63;4.05;;;20.40;88.60;;;21.70;40.30;95141.00;2332343;57;26723;-78
2024/04/01 07:39:01;;;;;;;22.98;4.30;;;20.50;87.30;;;21.69;39.62;95145.00;2332435;57;26202;-77
2024/04/01 07:41:28;;;;;;;20.02;3.42;;;20.60;88.50;;;21.80;40.31;95155.00;2332349;57;26158;-76
2024/04/01 07:43:54;;;;;;;29.12;3.42;;;20.70;87.80;;;21.98;39.69;95158.00;2332140;57;26179;-78
2024/04/01 07:46:21;;;;;;;27.25;3.20;;;20.80;87.30;;;21.87;39.55;95181.00;2331865;57;26076;-79
2024/04/01 07:48:47;;;;;;;31.00;3.47;;;20.80;86.80;;;21.84;39.66;95174.00;2332326;57;26206;-79
2024/04/01 07:51:14;;;;;;;35.75;3.80;;;20.90;85.50;;;22.00;38.74;95177.00;2332455;57;26135;-77
2024/04/01 07:53:41;;;;;;;32.42;4.25;;;21.00;84.30;;;22.17;37.86;95179.00;2332266;57;26078;-78
2024/04/01 07:56:07;;;;;;;27.92;3.62;;;21.20;85.60;;;22.32;38.76;95170.00;2332135;57;26754;-78
2024/04/01 07:58:34;;;;;;;33.72;3.95;;;21.40;84.80;;;22.39;38.21;95196.00;2331979;57;26147;-76
2024/04/01 08:01:06;;;;;;;51.90;5.57;;;21.50;84.60;;;22.56;38.46;95171.00;2332275;57;26091;-77
2024/04/01 08:03:32;;;;;;;28.23;4.97;;;21.70;85.40;;;22.56;39.08;95120.00;2331797;57;26456;-77
2024/04/01 08:05:59;;;;;;;42.55;4.62;;;21.70;84.30;;;22.53;38.49;95181.00;2332162;57;26206;-79
2024/04/01 08:08:25;;;;;;;46.30;5.00;;;21.90;83.40;;;23.13;37.28;95184.00;2332163;57;26466;-78
2024/04/01 08:10:52;;;;;;;45.50;3.95;;;22.10;83.80;;;23.30;37.62;95178.00;2332321;57;26178;-77
2024/04/01 08:13:18;;;;;;;35.22;4.65;;;22.60;81.50;;;23.85;35.77;95186.00;2332393;57;26750;-79
2024/04/01 08:15:45;;;;;;;40.55;6.32;;;22.70;80.20;;;23.54;35.76;95168.00;2331983;57;26131;-78
2024/04/01 08:18:11;;;;;;;32.13;5.00;;;22.70;82.60;;;23.82;37.05;95185.00;2332300;57;26151;-79
2024/04/01 08:20:39;;;;;;;40.78;6.30;;;22.80;81.00;;;24.08;35.83;95181.00;2331831;57;26750;-76
2024/04/01 08:23:31;;;;;;;43.13;5.20;;;22.70;80.70;;;24.12;35.47;95165.00;2331892;57;26526;-78
2024/04/01 08:25:59;;;;;;;43.70;5.45;;;22.70;80.50;;;23.87;35.71;95176.00;2332237;57;26155;-76
2024/04/01 08:28:25;;;;;;;52.40;6.72;;;22.80;79.40;;;24.03;35.15;95199.00;2331710;57;26170;-79
2024/04/01 08:30:52;;;;;;;46.10;6.30;;;22.60;79.30;;;23.54;35.42;95149.00;2331908;57;26102;-79
2024/04/01 08:33:19;;;;;;;45.38;5.50;;;22.40;80.00;;;23.41;36.02;95137.00;2331771;57;26233;-77
2024/04/01 08:35:46;;;;;;;44.47;5.72;;;22.60;79.40;;;23.75;35.36;95163.00;2331994;57;26146;-77
2024/04/01 08:38:12;;;;;;;44.20;5.15;;;22.60;79.10;;;23.51;35.62;95147.00;2332169;57;26221;-78
2024/04/01 08:41:05;;;;;;;45.25;5.50;;;22.50;78.90;;;23.29;35.65;95130.00;2331619;57;26747;-79
2024/04/01 08:43:41;;;;;;;31.55;4.30;;;22.50;79.70;;;23.39;36.08;95153.00;2332011;57;26087;-78
2024/04/01 08:46:08;;;;;;;56.33;6.68;;;22.40;78.90;;;23.25;35.80;95140.00;2332390;57;26088;-78
2024/04/01 08:48:40;;;;;;;48.08;7.15;;;22.60;79.40;;;23.69;35.67;95153.00;2331675;57;26135;-76
2024/04/01 08:51:09;;;;;;;46.42;6.43;;;23.00;80.70;;;24.40;35.43;95166.00;2332434;57;26110;-78
2024/04/01 08:54:02;;;;;;;67.72;6.12;;;23.20;75.60;;;24.40;33.02;95147.00;2331871;57;26573;-77
2024/04/01 08:56:31;;;;;;;42.08;5.12;;;23.10;76.70;;;24.33;33.81;95157.00;2332124;57;26166;-76
2024/04/01 08:58:59;;;;;;;51.10;5.50;;;23.30;76.00;;;24.56;33.17;95136.00;2331876;57;26101;-79
2024/04/01 09:01:26;;;;;;;52.70;7.32;;;23.30;75.30;;;24.50;32.96;95156.00;2331375;57;27004;-78
2024/04/01 09:03:53;;;;;;;44.20;6.57;;;23.10;73.50;;;24.19;31.97;95133.00;2331888;57;26063;-78
2024/04/01 09:06:20;;;;;;;35.40;5.97;;;23.20;73.30;;;24.20;32.26;95148.00;2331792;57;26179;-77
2024/04/01 09:08:50;;;;;;;78.10;7.55;;;23.20;74.70;;;24.35;33.08;95141.00;2331703;57;26519;-79
2024/04/01 09:11:16;;;;;;;40.63;5.45;;;23.40;73.60;;;24.63;31.91;95106.00;2332105;57;26083;-78
2024/04/01 09:13:45;;;;;;;60.25;6.93;;;23.50;72.00;;;24.79;31.17;95101.00;2331445;57;26072;-77
2024/04/01 09:16:12;;;;;;;55.97;7.82;;;23.50;73.80;;;24.76;32.36;95122.00;2331440;57;26245;-79
2024/04/01 09:18:39;;;;;;;58.33;7.97;;;23.50;72.30;;;24.66;31.74;95119.00;2331334;57;26703;-76
2024/04/01 09:21:06;;;;;;;39.85;6.70;;;23.50;73.40;;;24.82;32.26;95111.00;2331805;57;26119;-78
2024/04/01 09:23:41;;;;;;;49.50;7.12;;;23.70;71.50;;;25.13;30.79;95119.00;2331766;57;26135;-78
2024/04/01 09:26:07;;;;;;;46.08;6.60;;;23.70;70.50;;;25.01;30.53;95102.00;2332114;57;26530;-77
2024/04/01 09:28:34;;;;;;;47.58;5.30;;;23.80;70.00;;;25.10;30.18;95077.00;2331608;57;26660;-78
2024/04/01 09:31:01;;;;;;;56.95;7.37;;;23.80;70.20;;;25.19;30.26;95103.00;2332238;57;26161;-78
2024/04/01 09:33:28;;;;;;;48.50;6.82;;;24.10;69.80;;;25.51;30.08;95102.00;2331727;57;26075;-78
2024/04/01 09:35:55;;;;;;;52.33;7.20;;;24.40;67.90;;;25.90;28.76;95113.00;2332172;57;26261;-77
2024/04/01 09:38:22;;;;;;;64.75;8.95;;;24.70;67.60;;;26.07;28.86;95080.00;2331984;57;26103;-77
2024/04/01 09:40:59;;;;;;;54.05;7.65;;;24.60;68.40;;;26.03;29.36;95087.00;2331914;57;26202;-78
2024/04/01 09:43:31;;;;;;;61.13;6.30;;;24.40;67.90;;;25.66;29.42;95081.00;2332518;57;26082;-77
2024/04/01 09:46:19;;;;;;;56.65;7.80;;;24.50;66.30;;;25.88;28.40;95084.00;2332135;57;26316;-76
2024/04/01 09:48:47;;;;;;;59.80;6.12;;;24.80;66.20;;;26.32;27.87;95080.00;2331538;57;26139;-77
2024/04/01 09:51:14;;;;;;;52.05;7.50;;;24.90;66.60;;;26.44;28.34;95052.00;2332149;57;26135;-78
2024/04/01 09:53:40;;;;;;;59.65;7.07;;;25.00;66.10;;;26.47;28.18;95089.00;2331791;57;26206;-76
2024/04/01 09:59:56;;;;;;;53.70;6.75;;;24.40;64.80;;;25.47;28.28;95081.00;2332114;57;26145;-77
2024/04/01 10:04:40;;;;;;;38.03;6.97;;;24.30;65.80;;;25.39;27.67;95057.00;2331911;57;26714;-76
2024/04/01 10:11:38;;;;;;;51.92;5.87;;;24.00;67.20;;;25.21;28.48;95098.00;2332484;57;26158;-78
2024/04/01 10:18:49;;;;;;;63.05;7.03;;;23.80;63.90;;;24.86;28.07;95062.00;2332230;57;26945;-75
2024/04/01 10:26:52;;;;;;;73.10;7.93;;;24.10;66.10;;;25.30;28.32;95056.00;2330567;57;26175;-76
2024/04/01 10:33:07;;;;;;;37.40;6.70;;;24.30;63.20;;;25.34;27.91;95073.00;2330696;57;26122;-78
2024/04/01 10:36:17;;;;;;;41.72;7.45;;;24.50;62.70;;;25.78;27.28;95067.00;2332022;57;26182;-76
2024/04/01 10:39:51;;;;;;;47.80;6.62;;;24.50;63.20;;;25.59;27.89;95076.00;2331671;57;26440;-76
2024/04/01 10:44:16;;;;;;;57.58;7.43;;;24.30;62.50;;;25.45;27.70;95072.00;2331174;57;26201;-77